sensor_id;sensor_type;location;lat;lon;timestamp;P1;durP1;ratioP1;P2;durP2;ratioP2
11829;SDS011;5972;42.134;24.718;2024-03-02T00:00:48;37.70;;;23.70;;
11829;SDS011;5972;42.134;24.718;2024-03-02T00:03:17;44.28;;;24.00;;
11829;SDS011;5972;42.134;24.718;2024-03-02T00:05:48;42.28;;;24.75;;
11829;SDS011;5972;42.134;24.718;2024-03-02T00:08:16;37.63;;;24.25;;
11829;SDS011;5972;42.134;24.718;2024-03-02T00:10:51;40.65;;;24.38;;
11829;SDS011;5972;42.134;24.718;2024-03-02T00:13:23;41.67;;;24.70;;
11829;SDS011;5972;42.134;24.718;2024-03-02T00:15:51;44.22;;;24.73;;
11829;SDS011;5972;42.134;24.718;2024-03-02T00:18:23;44.22;;;25.52;;
11829;SDS011;5972;42.134;24.718;2024-03-02T00:20:52;40.47;;;24.02;;
11829;SDS011;5972;42.134;24.718;2024-03-02T00:23:21;47.63;;;25.55;;
11829;SDS011;5972;42.134;24.718;2024-03-02T00:25:48;40.13;;;23.92;;
11829;SDS011;5972;42.134;24.718;2024-03-02T00:28:19;43.15;;;25.30;;
11829;SDS011;5972;42.134;24.718;2024-03-02T00:33:34;42.40;;;25.23;;
11829;SDS011;5972;42.134;24.718;2024-03-02T00:36:03;46.85;;;24.63;;
11829;SDS011;5972;42.134;24.718;2024-03-02T00:38:31;46.88;;;26.42;;
11829;SDS011;5972;42.134;24.718;2024-03-02T00:41:00;40.55;;;25.38;;
11829;SDS011;5972;42.134;24.718;2024-03-02T00:46:51;53.83;;;27.35;;
11829;SDS011;5972;42.134;24.718;2024-03-02T00:49:21;54.13;;;27.75;;
11829;SDS011;5972;42.134;24.718;2024-03-02T00:51:49;49.50;;;28.02;;
11829;SDS011;5972;42.134;24.718;2024-03-02T00:54:19;54.28;;;28.25;;
11829;SDS011;5972;42.134;24.718;2024-03-02T00:56:48;49.47;;;29.80;;
11829;SDS011;5972;42.134;24.718;2024-03-02T00:59:15;54.47;;;27.80;;
11829;SDS011;5972;42.134;24.718;2024-03-02T01:01:42;50.45;;;27.40;;
11829;SDS011;5972;42.134;24.718;2024-03-02T01:04:09;52.25;;;28.92;;
11829;SDS011;5972;42.134;24.718;2024-03-02T01:06:38;53.65;;;28.73;;
11829;SDS011;5972;42.134;24.718;2024-03-02T01:09:06;53.30;;;29.38;;
11829;SDS011;5972;42.134;24.718;2024-03-02T01:11:33;53.65;;;27.98;;
11829;SDS011;5972;42.134;24.718;2024-03-02T01:14:00;53.38;;;28.85;;
11829;SDS011;5972;42.134;24.718;2024-03-02T01:16:27;55.95;;;29.13;;
11829;SDS011;5972;42.134;24.718;2024-03-02T01:18:54;55.33;;;28.75;;
11829;SDS011;5972;42.134;24.718;2024-03-02T01:21:23;62.88;;;29.33;;
11829;SDS011;5972;42.134;24.718;2024-03-02T01:23:52;55.55;;;30.38;;
11829;SDS011;5972;42.134;24.718;2024-03-02T01:26:19;64.55;;;31.80;;
11829;SDS011;5972;42.134;24.718;2024-03-02T01:28:46;65.88;;;31.45;;
11829;SDS011;5972;42.134;24.718;2024-03-02T01:31:13;71.43;;;31.00;;
11829;SDS011;5972;42.134;24.718;2024-03-02T01:33:39;60.85;;;32.00;;
11829;SDS011;5972;42.134;24.718;2024-03-02T01:36:06;65.47;;;32.50;;
11829;SDS011;5972;42.134;24.718;2024-03-02T01:38:34;69.93;;;32.90;;
11829;SDS011;5972;42.134;24.718;2024-03-02T01:41:02;69.57;;;31.90;;
11829;SDS011;5972;42.134;24.718;2024-03-02T01:43:29;76.85;;;33.72;;
11829;SDS011;5972;42.134;24.718;2024-03-02T01:45:56;73.82;;;33.90;;
11829;SDS011;5972;42.134;24.718;2024-03-02T01:48:23;74.03;;;33.85;;
11829;SDS011;5972;42.134;24.718;2024-03-02T01:50:50;79.70;;;34.40;;
11829;SDS011;5972;42.134;24.718;2024-03-02T01:53:18;77.45;;;35.75;;
11829;SDS011;5972;42.134;24.718;2024-03-02T01:55:45;78.73;;;35.20;;
11829;SDS011;5972;42.134;24.718;2024-03-02T01:58:13;90.85;;;34.45;;
11829;SDS011;5972;42.134;24.718;2024-03-02T02:00:41;91.40;;;36.77;;
11829;SDS011;5972;42.134;24.718;2024-03-02T02:03:08;82.57;;;35.88;;
11829;SDS011;5972;42.134;24.718;2024-03-02T02:05:35;95.13;;;37.07;;
11829;SDS011;5972;42.134;24.718;2024-03-02T02:08:02;85.80;;;35.72;;
11829;SDS011;5972;42.134;24.718;2024-03-02T02:10:29;101.28;;;37.53;;
11829;SDS011;5972;42.134;24.718;2024-03-02T02:12:56;84.05;;;35.42;;
11829;SDS011;5972;42.134;24.718;2024-03-02T02:15:25;82.15;;;33.72;;
11829;SDS011;5972;42.134;24.718;2024-03-02T02:17:53;87.10;;;34.75;;
11829;SDS011;5972;42.134;24.718;2024-03-02T02:20:20;85.13;;;35.55;;
11829;SDS011;5972;42.134;24.718;2024-03-02T02:22:57;84.82;;;34.05;;
11829;SDS011;5972;42.134;24.718;2024-03-02T02:25:25;66.15;;;30.60;;
11829;SDS011;5972;42.134;24.718;2024-03-02T02:27:52;66.78;;;30.08;;
11829;SDS011;5972;42.134;24.718;2024-03-02T02:30:20;69.95;;;30.08;;
11829;SDS011;5972;42.134;24.718;2024-03-02T02:32:48;67.72;;;31.00;;
11829;SDS011;5972;42.134;24.718;2024-03-02T02:35:15;64.60;;;30.70;;
11829;SDS011;5972;42.134;24.718;2024-03-02T02:37:42;53.75;;;27.88;;
11829;SDS011;5972;42.134;24.718;2024-03-02T02:40:11;56.65;;;27.80;;
11829;SDS011;5972;42.134;24.718;2024-03-02T02:42:39;61.97;;;28.60;;
11829;SDS011;5972;42.134;24.718;2024-03-02T02:45:06;61.95;;;30.80;;
11829;SDS011;5972;42.134;24.718;2024-03-02T02:47:32;65.15;;;31.90;;
11829;SDS011;5972;42.134;24.718;2024-03-02T02:50:00;59.45;;;30.23;;
11829;SDS011;5972;42.134;24.718;2024-03-02T02:52:30;62.95;;;32.00;;
11829;SDS011;5972;42.134;24.718;2024-03-02T02:55:01;62.13;;;31.43;;
11829;SDS011;5972;42.134;24.718;2024-03-02T02:57:30;57.35;;;30.33;;
11829;SDS011;5972;42.134;24.718;2024-03-02T03:00:01;65.43;;;30.13;;
11829;SDS011;5972;42.134;24.718;2024-03-02T03:02:35;57.85;;;29.10;;
11829;SDS011;5972;42.134;24.718;2024-03-02T03:05:07;57.15;;;30.02;;
11829;SDS011;5972;42.134;24.718;2024-03-02T03:07:35;55.42;;;29.73;;
11829;SDS011;5972;42.134;24.718;2024-03-02T03:10:02;61.25;;;29.38;;
11829;SDS011;5972;42.134;24.718;2024-03-02T03:12:32;62.50;;;29.98;;
11829;SDS011;5972;42.134;24.718;2024-03-02T03:14:59;59.53;;;28.67;;
11829;SDS011;5972;42.134;24.718;2024-03-02T03:17:26;55.47;;;29.00;;
11829;SDS011;5972;42.134;24.718;2024-03-02T03:19:53;51.27;;;27.90;;
11829;SDS011;5972;42.134;24.718;2024-03-02T03:22:21;55.03;;;27.45;;
11829;SDS011;5972;42.134;24.718;2024-03-02T03:24:48;46.47;;;26.30;;
11829;SDS011;5972;42.134;24.718;2024-03-02T03:27:15;49.53;;;27.58;;
11829;SDS011;5972;42.134;24.718;2024-03-02T03:29:43;47.80;;;26.97;;
11829;SDS011;5972;42.134;24.718;2024-03-02T03:32:10;46.47;;;24.93;;
11829;SDS011;5972;42.134;24.718;2024-03-02T03:34:37;50.47;;;26.30;;
11829;SDS011;5972;42.134;24.718;2024-03-02T03:37:04;47.40;;;24.77;;
11829;SDS011;5972;42.134;24.718;2024-03-02T03:39:31;49.03;;;26.20;;
11829;SDS011;5972;42.134;24.718;2024-03-02T03:42:00;48.93;;;26.63;;
11829;SDS011;5972;42.134;24.718;2024-03-02T03:44:27;49.65;;;26.58;;
11829;SDS011;5972;42.134;24.718;2024-03-02T03:46:56;56.75;;;27.27;;
11829;SDS011;5972;42.134;24.718;2024-03-02T03:49:23;53.40;;;28.65;;
11829;SDS011;5972;42.134;24.718;2024-03-02T03:51:50;53.25;;;27.67;;
11829;SDS011;5972;42.134;24.718;2024-03-02T03:54:17;49.83;;;26.35;;
11829;SDS011;5972;42.134;24.718;2024-03-02T03:56:43;52.28;;;27.33;;
11829;SDS011;5972;42.134;24.718;2024-03-02T03:59:10;53.07;;;28.27;;
11829;SDS011;5972;42.134;24.718;2024-03-02T04:01:38;51.73;;;27.30;;
11829;SDS011;5972;42.134;24.718;2024-03-02T04:04:06;55.60;;;26.65;;
11829;SDS011;5972;42.134;24.718;2024-03-02T04:06:33;52.50;;;27.30;;
11829;SDS011;5972;42.134;24.718;2024-03-02T04:09:00;48.15;;;27.65;;
11829;SDS011;5972;42.134;24.718;2024-03-02T04:11:29;50.67;;;26.15;;
11829;SDS011;5972;42.134;24.718;2024-03-02T04:13:56;47.80;;;25.87;;
11829;SDS011;5972;42.134;24.718;2024-03-02T04:16:23;51.13;;;26.00;;
11829;SDS011;5972;42.134;24.718;2024-03-02T04:18:50;49.70;;;27.13;;
11829;SDS011;5972;42.134;24.718;2024-03-02T04:21:18;48.72;;;26.80;;
11829;SDS011;5972;42.134;24.718;2024-03-02T04:23:45;49.78;;;25.60;;
11829;SDS011;5972;42.134;24.718;2024-03-02T04:26:12;53.65;;;26.08;;
11829;SDS011;5972;42.134;24.718;2024-03-02T04:28:40;52.15;;;26.45;;
11829;SDS011;5972;42.134;24.718;2024-03-02T04:31:07;52.88;;;27.08;;
11829;SDS011;5972;42.134;24.718;2024-03-02T04:33:34;55.53;;;25.50;;
11829;SDS011;5972;42.134;24.718;2024-03-02T04:36:00;50.63;;;25.63;;
11829;SDS011;5972;42.134;24.718;2024-03-02T04:38:29;56.60;;;26.05;;
11829;SDS011;5972;42.134;24.718;2024-03-02T04:40:57;65.47;;;29.17;;
11829;SDS011;5972;42.134;24.718;2024-03-02T04:43:24;60.57;;;27.43;;
11829;SDS011;5972;42.134;24.718;2024-03-02T04:45:51;62.53;;;29.03;;
11829;SDS011;5972;42.134;24.718;2024-03-02T04:48:18;68.32;;;29.52;;
11829;SDS011;5972;42.134;24.718;2024-03-02T04:50:47;69.80;;;29.08;;
11829;SDS011;5972;42.134;24.718;2024-03-02T04:53:14;63.45;;;28.33;;
11829;SDS011;5972;42.134;24.718;2024-03-02T04:55:42;63.65;;;29.10;;
11829;SDS011;5972;42.134;24.718;2024-03-02T04:58:35;61.00;;;28.88;;
11829;SDS011;5972;42.134;24.718;2024-03-02T05:01:02;64.00;;;28.23;;
11829;SDS011;5972;42.134;24.718;2024-03-02T05:03:29;62.38;;;28.00;;
11829;SDS011;5972;42.134;24.718;2024-03-02T05:05:56;56.67;;;26.65;;
11829;SDS011;5972;42.134;24.718;2024-03-02T05:08:22;62.45;;;27.02;;
11829;SDS011;5972;42.134;24.718;2024-03-02T05:10:51;54.72;;;25.63;;
11829;SDS011;5972;42.134;24.718;2024-03-02T05:13:18;58.05;;;26.98;;
11829;SDS011;5972;42.134;24.718;2024-03-02T05:15:46;57.42;;;26.08;;
11829;SDS011;5972;42.134;24.718;2024-03-02T05:18:13;53.50;;;25.43;;
11829;SDS011;5972;42.134;24.718;2024-03-02T05:20:40;51.65;;;26.17;;
11829;SDS011;5972;42.134;24.718;2024-03-02T05:23:06;62.10;;;25.83;;
11829;SDS011;5972;42.134;24.718;2024-03-02T05:25:33;52.75;;;25.63;;
11829;SDS011;5972;42.134;24.718;2024-03-02T05:28:02;52.53;;;25.63;;
11829;SDS011;5972;42.134;24.718;2024-03-02T05:30:29;50.55;;;24.60;;
11829;SDS011;5972;42.134;24.718;2024-03-02T05:32:56;57.30;;;26.03;;
11829;SDS011;5972;42.134;24.718;2024-03-02T05:35:23;49.70;;;23.83;;
11829;SDS011;5972;42.134;24.718;2024-03-02T05:37:51;42.80;;;22.02;;
11829;SDS011;5972;42.134;24.718;2024-03-02T05:40:18;48.30;;;26.27;;
11829;SDS011;5972;42.134;24.718;2024-03-02T05:42:45;47.22;;;24.25;;
11829;SDS011;5972;42.134;24.718;2024-03-02T05:45:14;44.42;;;23.10;;
11829;SDS011;5972;42.134;24.718;2024-03-02T05:47:41;43.53;;;22.15;;
11829;SDS011;5972;42.134;24.718;2024-03-02T05:50:09;44.95;;;21.48;;
11829;SDS011;5972;42.134;24.718;2024-03-02T05:52:35;40.58;;;20.77;;
11829;SDS011;5972;42.134;24.718;2024-03-02T05:55:03;37.53;;;20.25;;
11829;SDS011;5972;42.134;24.718;2024-03-02T05:57:30;44.85;;;21.25;;
11829;SDS011;5972;42.134;24.718;2024-03-02T06:00:16;45.03;;;22.02;;
11829;SDS011;5972;42.134;24.718;2024-03-02T06:02:43;43.20;;;21.75;;
11829;SDS011;5972;42.134;24.718;2024-03-02T06:05:10;44.25;;;23.08;;
11829;SDS011;5972;42.134;24.718;2024-03-02T06:07:37;45.42;;;22.13;;
11829;SDS011;5972;42.134;24.718;2024-03-02T06:10:05;42.80;;;21.95;;
11829;SDS011;5972;42.134;24.718;2024-03-02T06:12:34;37.75;;;21.17;;
11829;SDS011;5972;42.134;24.718;2024-03-02T06:15:01;39.72;;;20.50;;
11829;SDS011;5972;42.134;24.718;2024-03-02T06:17:30;42.35;;;21.77;;
11829;SDS011;5972;42.134;24.718;2024-03-02T06:19:57;43.05;;;20.85;;
11829;SDS011;5972;42.134;24.718;2024-03-02T06:22:24;43.70;;;21.35;;
11829;SDS011;5972;42.134;24.718;2024-03-02T06:24:51;43.30;;;23.77;;
11829;SDS011;5972;42.134;24.718;2024-03-02T06:27:18;44.78;;;23.17;;
11829;SDS011;5972;42.134;24.718;2024-03-02T06:29:45;37.63;;;21.67;;
11829;SDS011;5972;42.134;24.718;2024-03-02T06:32:13;38.92;;;21.27;;
11829;SDS011;5972;42.134;24.718;2024-03-02T06:34:42;39.50;;;21.60;;
11829;SDS011;5972;42.134;24.718;2024-03-02T06:37:09;38.35;;;20.95;;
11829;SDS011;5972;42.134;24.718;2024-03-02T06:39:36;37.58;;;21.15;;
11829;SDS011;5972;42.134;24.718;2024-03-02T06:42:03;31.77;;;17.58;;
11829;SDS011;5972;42.134;24.718;2024-03-02T06:44:30;30.55;;;18.73;;
11829;SDS011;5972;42.134;24.718;2024-03-02T06:46:57;30.13;;;17.02;;
11829;SDS011;5972;42.134;24.718;2024-03-02T06:49:24;30.17;;;18.20;;
11829;SDS011;5972;42.134;24.718;2024-03-02T06:51:52;29.13;;;18.73;;
11829;SDS011;5972;42.134;24.718;2024-03-02T06:54:19;29.88;;;17.58;;
11829;SDS011;5972;42.134;24.718;2024-03-02T06:56:46;30.95;;;18.10;;
11829;SDS011;5972;42.134;24.718;2024-03-02T06:59:13;30.20;;;18.05;;
11829;SDS011;5972;42.134;24.718;2024-03-02T07:01:40;28.60;;;19.42;;
11829;SDS011;5972;42.134;24.718;2024-03-02T07:04:08;29.90;;;17.38;;
11829;SDS011;5972;42.134;24.718;2024-03-02T07:06:35;30.05;;;17.52;;
11829;SDS011;5972;42.134;24.718;2024-03-02T07:09:04;28.63;;;17.98;;
11829;SDS011;5972;42.134;24.718;2024-03-02T07:11:32;29.15;;;18.48;;
11829;SDS011;5972;42.134;24.718;2024-03-02T07:13:59;31.52;;;19.05;;
11829;SDS011;5972;42.134;24.718;2024-03-02T07:16:27;29.42;;;18.55;;
11829;SDS011;5972;42.134;24.718;2024-03-02T07:18:58;28.73;;;18.08;;
11829;SDS011;5972;42.134;24.718;2024-03-02T07:21:26;27.15;;;18.02;;
11829;SDS011;5972;42.134;24.718;2024-03-02T07:23:54;32.92;;;19.08;;
11829;SDS011;5972;42.134;24.718;2024-03-02T07:26:22;26.52;;;17.88;;
11829;SDS011;5972;42.134;24.718;2024-03-02T07:28:49;29.75;;;18.75;;
11829;SDS011;5972;42.134;24.718;2024-03-02T07:31:17;29.58;;;19.80;;
11829;SDS011;5972;42.134;24.718;2024-03-02T07:33:44;38.95;;;24.27;;
11829;SDS011;5972;42.134;24.718;2024-03-02T07:36:11;34.53;;;23.15;;
11829;SDS011;5972;42.134;24.718;2024-03-02T07:38:39;33.30;;;21.17;;
11829;SDS011;5972;42.134;24.718;2024-03-02T07:41:06;30.33;;;19.08;;
11829;SDS011;5972;42.134;24.718;2024-03-02T07:43:35;32.13;;;19.50;;
11829;SDS011;5972;42.134;24.718;2024-03-02T07:46:02;29.83;;;19.27;;
11829;SDS011;5972;42.134;24.718;2024-03-02T07:48:29;32.35;;;19.63;;
11829;SDS011;5972;42.134;24.718;2024-03-02T07:50:57;31.70;;;18.95;;
11829;SDS011;5972;42.134;24.718;2024-03-02T07:53:24;29.38;;;18.67;;
11829;SDS011;5972;42.134;24.718;2024-03-02T07:55:51;31.10;;;19.75;;
11829;SDS011;5972;42.134;24.718;2024-03-02T07:58:18;33.47;;;20.13;;
11829;SDS011;5972;42.134;24.718;2024-03-02T08:00:46;36.10;;;20.17;;
11829;SDS011;5972;42.134;24.718;2024-03-02T08:03:13;24.98;;;17.50;;
11829;SDS011;5972;42.134;24.718;2024-03-02T08:05:40;29.58;;;18.17;;
11829;SDS011;5972;42.134;24.718;2024-03-02T08:08:07;29.13;;;18.58;;
11829;SDS011;5972;42.134;24.718;2024-03-02T08:10:35;30.15;;;19.25;;
11829;SDS011;5972;42.134;24.718;2024-03-02T08:13:02;32.05;;;20.63;;
11829;SDS011;5972;42.134;24.718;2024-03-02T08:15:29;34.00;;;20.30;;
11829;SDS011;5972;42.134;24.718;2024-03-02T08:17:57;33.70;;;20.70;;
11829;SDS011;5972;42.134;24.718;2024-03-02T08:20:25;25.35;;;16.17;;
11829;SDS011;5972;42.134;24.718;2024-03-02T08:23:13;26.98;;;16.20;;
11829;SDS011;5972;42.134;24.718;2024-03-02T08:25:40;23.80;;;16.30;;
11829;SDS011;5972;42.134;24.718;2024-03-02T08:28:09;28.30;;;17.70;;
11829;SDS011;5972;42.134;24.718;2024-03-02T08:30:36;25.15;;;17.20;;
11829;SDS011;5972;42.134;24.718;2024-03-02T08:33:04;21.88;;;15.32;;
11829;SDS011;5972;42.134;24.718;2024-03-02T08:35:32;20.38;;;13.48;;
11829;SDS011;5972;42.134;24.718;2024-03-02T08:38:01;23.15;;;15.80;;
11829;SDS011;5972;42.134;24.718;2024-03-02T08:40:28;27.15;;;16.40;;
11829;SDS011;5972;42.134;24.718;2024-03-02T08:42:56;28.77;;;17.33;;
11829;SDS011;5972;42.134;24.718;2024-03-02T08:45:23;22.05;;;15.95;;
11829;SDS011;5972;42.134;24.718;2024-03-02T08:47:50;21.35;;;16.10;;
11829;SDS011;5972;42.134;24.718;2024-03-02T08:50:18;21.30;;;14.65;;
11829;SDS011;5972;42.134;24.718;2024-03-02T08:52:45;24.48;;;16.75;;
11829;SDS011;5972;42.134;24.718;2024-03-02T08:55:12;19.65;;;13.52;;
11829;SDS011;5972;42.134;24.718;2024-03-02T08:57:39;20.73;;;15.55;;
11829;SDS011;5972;42.134;24.718;2024-03-02T09:00:08;25.00;;;19.40;;
11829;SDS011;5972;42.134;24.718;2024-03-02T09:02:35;23.70;;;17.73;;
11829;SDS011;5972;42.134;24.718;2024-03-02T09:05:03;28.02;;;20.35;;
11829;SDS011;5972;42.134;24.718;2024-03-02T09:07:33;24.60;;;16.63;;
11829;SDS011;5972;42.134;24.718;2024-03-02T09:09:59;24.48;;;14.90;;
11829;SDS011;5972;42.134;24.718;2024-03-02T09:12:26;25.95;;;15.20;;
11829;SDS011;5972;42.134;24.718;2024-03-02T09:14:55;25.55;;;15.88;;
11829;SDS011;5972;42.134;24.718;2024-03-02T09:17:22;25.83;;;16.70;;
11829;SDS011;5972;42.134;24.718;2024-03-02T09:19:49;24.10;;;15.82;;
11829;SDS011;5972;42.134;24.718;2024-03-02T09:22:17;25.95;;;15.55;;
11829;SDS011;5972;42.134;24.718;2024-03-02T09:24:46;29.33;;;17.20;;
11829;SDS011;5972;42.134;24.718;2024-03-02T09:27:13;31.35;;;18.52;;
11829;SDS011;5972;42.134;24.718;2024-03-02T09:29:40;27.95;;;19.63;;
11829;SDS011;5972;42.134;24.718;2024-03-02T09:32:07;32.28;;;20.08;;
11829;SDS011;5972;42.134;24.718;2024-03-02T09:34:35;31.25;;;18.45;;
11829;SDS011;5972;42.134;24.718;2024-03-02T09:37:01;30.30;;;18.05;;
11829;SDS011;5972;42.134;24.718;2024-03-02T09:39:29;27.40;;;17.63;;
11829;SDS011;5972;42.134;24.718;2024-03-02T09:41:58;25.00;;;16.45;;
11829;SDS011;5972;42.134;24.718;2024-03-02T09:44:25;25.30;;;15.95;;
11829;SDS011;5972;42.134;24.718;2024-03-02T09:46:52;25.05;;;16.40;;
11829;SDS011;5972;42.134;24.718;2024-03-02T09:49:19;27.02;;;18.13;;
11829;SDS011;5972;42.134;24.718;2024-03-02T09:51:47;31.00;;;20.45;;
11829;SDS011;5972;42.134;24.718;2024-03-02T09:54:15;35.40;;;23.40;;
11829;SDS011;5972;42.134;24.718;2024-03-02T09:56:42;28.88;;;18.73;;
11829;SDS011;5972;42.134;24.718;2024-03-02T09:59:11;32.53;;;23.65;;
11829;SDS011;5972;42.134;24.718;2024-03-02T10:01:55;24.85;;;15.45;;
11829;SDS011;5972;42.134;24.718;2024-03-02T10:04:23;33.20;;;18.13;;
11829;SDS011;5972;42.134;24.718;2024-03-02T10:06:52;28.92;;;17.27;;
11829;SDS011;5972;42.134;24.718;2024-03-02T10:09:36;28.08;;;17.30;;
11829;SDS011;5972;42.134;24.718;2024-03-02T10:12:03;27.50;;;18.08;;
11829;SDS011;5972;42.134;24.718;2024-03-02T10:14:32;26.10;;;17.77;;
11829;SDS011;5972;42.134;24.718;2024-03-02T10:17:03;27.10;;;17.80;;
11829;SDS011;5972;42.134;24.718;2024-03-02T10:19:31;26.17;;;17.75;;
11829;SDS011;5972;42.134;24.718;2024-03-02T10:22:00;21.20;;;16.45;;
11829;SDS011;5972;42.134;24.718;2024-03-02T10:24:34;26.77;;;17.80;;
11829;SDS011;5972;42.134;24.718;2024-03-02T10:27:06;28.17;;;18.25;;
11829;SDS011;5972;42.134;24.718;2024-03-02T10:29:39;28.60;;;16.95;;
11829;SDS011;5972;42.134;24.718;2024-03-02T10:32:10;29.05;;;19.77;;
11829;SDS011;5972;42.134;24.718;2024-03-02T10:34:39;23.92;;;17.80;;
11829;SDS011;5972;42.134;24.718;2024-03-02T10:37:07;26.40;;;17.75;;
11829;SDS011;5972;42.134;24.718;2024-03-02T10:39:35;28.48;;;18.40;;
11829;SDS011;5972;42.134;24.718;2024-03-02T10:42:03;48.75;;;26.70;;
11829;SDS011;5972;42.134;24.718;2024-03-02T10:44:32;24.27;;;18.75;;
11829;SDS011;5972;42.134;24.718;2024-03-02T10:47:02;27.75;;;20.15;;
11829;SDS011;5972;42.134;24.718;2024-03-02T10:49:30;24.08;;;18.45;;
11829;SDS011;5972;42.134;24.718;2024-03-02T10:51:58;32.22;;;20.23;;
11829;SDS011;5972;42.134;24.718;2024-03-02T10:54:25;25.42;;;17.25;;
11829;SDS011;5972;42.134;24.718;2024-03-02T10:56:55;22.65;;;17.30;;
11829;SDS011;5972;42.134;24.718;2024-03-02T10:59:28;29.48;;;22.25;;
11829;SDS011;5972;42.134;24.718;2024-03-02T11:02:01;31.02;;;24.15;;
11829;SDS011;5972;42.134;24.718;2024-03-02T11:04:32;30.17;;;21.58;;
11829;SDS011;5972;42.134;24.718;2024-03-02T11:07:02;24.65;;;20.13;;
11829;SDS011;5972;42.134;24.718;2024-03-02T11:09:33;23.92;;;19.60;;
11829;SDS011;5972;42.134;24.718;2024-03-02T11:12:02;22.55;;;17.05;;
11829;SDS011;5972;42.134;24.718;2024-03-02T11:14:35;20.70;;;17.80;;
11829;SDS011;5972;42.134;24.718;2024-03-02T11:17:09;23.55;;;18.50;;
11829;SDS011;5972;42.134;24.718;2024-03-02T11:19:38;21.00;;;17.05;;
11829;SDS011;5972;42.134;24.718;2024-03-02T11:22:06;22.75;;;17.75;;
11829;SDS011;5972;42.134;24.718;2024-03-02T11:24:33;20.20;;;16.15;;
11829;SDS011;5972;42.134;24.718;2024-03-02T11:27:00;21.65;;;17.88;;
11829;SDS011;5972;42.134;24.718;2024-03-02T11:29:43;21.98;;;17.83;;
11829;SDS011;5972;42.134;24.718;2024-03-02T11:32:20;19.83;;;16.80;;
11829;SDS011;5972;42.134;24.718;2024-03-02T11:34:49;17.08;;;14.13;;
11829;SDS011;5972;42.134;24.718;2024-03-02T11:37:17;15.63;;;13.82;;
11829;SDS011;5972;42.134;24.718;2024-03-02T11:39:45;17.83;;;14.55;;
11829;SDS011;5972;42.134;24.718;2024-03-02T11:42:13;17.20;;;14.35;;
11829;SDS011;5972;42.134;24.718;2024-03-02T11:44:42;18.45;;;15.43;;
11829;SDS011;5972;42.134;24.718;2024-03-02T11:47:11;17.70;;;14.52;;
11829;SDS011;5972;42.134;24.718;2024-03-02T11:49:44;17.08;;;15.15;;
11829;SDS011;5972;42.134;24.718;2024-03-02T11:52:12;16.30;;;14.48;;
11829;SDS011;5972;42.134;24.718;2024-03-02T11:54:41;16.88;;;15.07;;
11829;SDS011;5972;42.134;24.718;2024-03-02T11:57:13;18.45;;;15.05;;
11829;SDS011;5972;42.134;24.718;2024-03-02T11:59:41;15.77;;;14.13;;
11829;SDS011;5972;42.134;24.718;2024-03-02T12:02:13;17.33;;;14.65;;
11829;SDS011;5972;42.134;24.718;2024-03-02T12:04:43;15.73;;;14.07;;
11829;SDS011;5972;42.134;24.718;2024-03-02T12:07:18;15.15;;;13.55;;
11829;SDS011;5972;42.134;24.718;2024-03-02T12:09:47;15.63;;;13.50;;
11829;SDS011;5972;42.134;24.718;2024-03-02T12:12:17;16.88;;;14.70;;
11829;SDS011;5972;42.134;24.718;2024-03-02T12:14:49;18.00;;;16.00;;
11829;SDS011;5972;42.134;24.718;2024-03-02T12:17:17;18.77;;;16.00;;
11829;SDS011;5972;42.134;24.718;2024-03-02T12:19:47;18.75;;;16.60;;
11829;SDS011;5972;42.134;24.718;2024-03-02T12:22:14;18.38;;;15.98;;
11829;SDS011;5972;42.134;24.718;2024-03-02T12:24:41;20.58;;;16.35;;
11829;SDS011;5972;42.134;24.718;2024-03-02T12:27:10;20.58;;;17.00;;
11829;SDS011;5972;42.134;24.718;2024-03-02T12:29:38;18.67;;;16.15;;
11829;SDS011;5972;42.134;24.718;2024-03-02T12:32:06;16.48;;;14.50;;
11829;SDS011;5972;42.134;24.718;2024-03-02T12:34:33;16.45;;;14.23;;
11829;SDS011;5972;42.134;24.718;2024-03-02T12:37:01;15.98;;;14.27;;
11829;SDS011;5972;42.134;24.718;2024-03-02T12:39:28;16.13;;;14.48;;
11829;SDS011;5972;42.134;24.718;2024-03-02T12:41:58;17.17;;;15.38;;
11829;SDS011;5972;42.134;24.718;2024-03-02T12:44:24;17.55;;;15.75;;
11829;SDS011;5972;42.134;24.718;2024-03-02T12:46:51;18.17;;;16.00;;
11829;SDS011;5972;42.134;24.718;2024-03-02T12:49:21;18.73;;;16.65;;
11829;SDS011;5972;42.134;24.718;2024-03-02T12:51:48;17.23;;;15.52;;
11829;SDS011;5972;42.134;24.718;2024-03-02T12:54:21;18.42;;;16.55;;
11829;SDS011;5972;42.134;24.718;2024-03-02T12:56:49;18.98;;;16.98;;
11829;SDS011;5972;42.134;24.718;2024-03-02T12:59:19;19.38;;;16.55;;
11829;SDS011;5972;42.134;24.718;2024-03-02T13:01:50;18.38;;;16.50;;
11829;SDS011;5972;42.134;24.718;2024-03-02T13:04:22;18.48;;;16.58;;
11829;SDS011;5972;42.134;24.718;2024-03-02T13:06:51;18.17;;;15.90;;
11829;SDS011;5972;42.134;24.718;2024-03-02T13:09:20;16.40;;;14.70;;
11829;SDS011;5972;42.134;24.718;2024-03-02T13:11:47;17.50;;;15.60;;
11829;SDS011;5972;42.134;24.718;2024-03-02T13:14:14;17.60;;;15.77;;
11829;SDS011;5972;42.134;24.718;2024-03-02T13:16:41;17.95;;;16.05;;
11829;SDS011;5972;42.134;24.718;2024-03-02T13:19:09;20.10;;;16.40;;
11829;SDS011;5972;42.134;24.718;2024-03-02T13:21:36;16.48;;;14.77;;
11829;SDS011;5972;42.134;24.718;2024-03-02T13:24:06;17.55;;;15.77;;
11829;SDS011;5972;42.134;24.718;2024-03-02T13:26:55;17.15;;;15.35;;
11829;SDS011;5972;42.134;24.718;2024-03-02T13:29:23;18.33;;;16.15;;
11829;SDS011;5972;42.134;24.718;2024-03-02T13:31:50;17.52;;;15.70;;
11829;SDS011;5972;42.134;24.718;2024-03-02T13:34:18;18.13;;;16.17;;
11829;SDS011;5972;42.134;24.718;2024-03-02T13:36:47;18.33;;;16.52;;
11829;SDS011;5972;42.134;24.718;2024-03-02T13:39:15;17.27;;;15.48;;
11829;SDS011;5972;42.134;24.718;2024-03-02T13:41:43;19.48;;;17.48;;
11829;SDS011;5972;42.134;24.718;2024-03-02T13:44:25;22.27;;;19.83;;
11829;SDS011;5972;42.134;24.718;2024-03-02T13:46:56;20.85;;;18.67;;
11829;SDS011;5972;42.134;24.718;2024-03-02T13:49:29;18.00;;;16.17;;
11829;SDS011;5972;42.134;24.718;2024-03-02T13:52:01;17.77;;;15.82;;
11829;SDS011;5972;42.134;24.718;2024-03-02T13:54:44;17.35;;;15.23;;
11829;SDS011;5972;42.134;24.718;2024-03-02T13:57:21;15.93;;;14.32;;
11829;SDS011;5972;42.134;24.718;2024-03-02T13:59:54;16.30;;;14.57;;
11829;SDS011;5972;42.134;24.718;2024-03-02T14:02:24;17.63;;;15.85;;
11829;SDS011;5972;42.134;24.718;2024-03-02T14:04:51;17.25;;;15.10;;
11829;SDS011;5972;42.134;24.718;2024-03-02T14:07:26;15.75;;;14.15;;
11829;SDS011;5972;42.134;24.718;2024-03-02T14:10:08;16.27;;;14.57;;
11829;SDS011;5972;42.134;24.718;2024-03-02T14:12:51;17.98;;;15.55;;
11829;SDS011;5972;42.134;24.718;2024-03-02T14:15:47;18.52;;;16.52;;
11829;SDS011;5972;42.134;24.718;2024-03-02T14:18:19;17.80;;;16.00;;
11829;SDS011;5972;42.134;24.718;2024-03-02T14:20:49;16.92;;;15.10;;
11829;SDS011;5972;42.134;24.718;2024-03-02T14:23:22;16.90;;;15.18;;
11829;SDS011;5972;42.134;24.718;2024-03-02T14:25:51;17.58;;;14.73;;
11829;SDS011;5972;42.134;24.718;2024-03-02T14:28:22;18.13;;;14.57;;
11829;SDS011;5972;42.134;24.718;2024-03-02T14:30:54;15.55;;;13.95;;
11829;SDS011;5972;42.134;24.718;2024-03-02T14:33:26;15.18;;;13.63;;
11829;SDS011;5972;42.134;24.718;2024-03-02T14:35:54;14.82;;;13.27;;